sensor_id;sensor_type;location;lat;lon;timestamp;temperature;humidity
67870;DHT22;54673;52.262;6.830;2023-08-06T00:02:13;16.40;94.50
67870;DHT22;54673;52.262;6.830;2023-08-06T00:04:39;16.10;94.40
67870;DHT22;54673;52.262;6.830;2023-08-06T00:07:05;15.90;94.60
67870;DHT22;54673;52.262;6.830;2023-08-06T00:09:30;16.10;94.80
67870;DHT22;54673;52.262;6.830;2023-08-06T00:11:56;16.10;94.50
67870;DHT22;54673;52.262;6.830;2023-08-06T00:14:21;16.30;94.50
67870;DHT22;54673;52.262;6.830;2023-08-06T00:16:47;15.90;94.50
67870;DHT22;54673;52.262;6.830;2023-08-06T00:19:12;16.00;94.40
67870;DHT22;54673;52.262;6.830;2023-08-06T00:21:38;15.90;94.40
67870;DHT22;54673;52.262;6.830;2023-08-06T00:24:04;15.90;94.30
67870;DHT22;54673;52.262;6.830;2023-08-06T00:26:30;15.80;94.50
67870;DHT22;54673;52.262;6.830;2023-08-06T00:28:55;15.80;94.50
67870;DHT22;54673;52.262;6.830;2023-08-06T00:31:21;16.50;94.60
67870;DHT22;54673;52.262;6.830;2023-08-06T00:33:46;15.80;94.70
67870;DHT22;54673;52.262;6.830;2023-08-06T00:36:12;15.80;95.00
67870;DHT22;54673;52.262;6.830;2023-08-06T00:38:37;15.80;95.20
67870;DHT22;54673;52.262;6.830;2023-08-06T00:41:03;15.80;94.50
67870;DHT22;54673;52.262;6.830;2023-08-06T00:43:29;15.80;94.90
67870;DHT22;54673;52.262;6.830;2023-08-06T00:45:55;15.80;94.80
67870;DHT22;54673;52.262;6.830;2023-08-06T00:48:21;15.70;94.90
67870;DHT22;54673;52.262;6.830;2023-08-06T00:50:47;15.80;95.20
67870;DHT22;54673;52.262;6.830;2023-08-06T00:53:13;15.80;95.00
67870;DHT22;54673;52.262;6.830;2023-08-06T00:55:39;15.70;95.20
67870;DHT22;54673;52.262;6.830;2023-08-06T00:58:05;15.70;94.90
67870;DHT22;54673;52.262;6.830;2023-08-06T01:00:31;16.40;95.20
67870;DHT22;54673;52.262;6.830;2023-08-06T01:02:57;15.70;95.10
67870;DHT22;54673;52.262;6.830;2023-08-06T01:05:22;15.60;95.20
67870;DHT22;54673;52.262;6.830;2023-08-06T01:08:15;15.60;94.70
67870;DHT22;54673;52.262;6.830;2023-08-06T01:16:06;15.70;94.90
67870;DHT22;54673;52.262;6.830;2023-08-06T01:18:32;15.60;95.10
67870;DHT22;54673;52.262;6.830;2023-08-06T01:20:57;15.70;94.80
67870;DHT22;54673;52.262;6.830;2023-08-06T01:23:23;16.30;95.10
67870;DHT22;54673;52.262;6.830;2023-08-06T01:31:22;15.90;95.00
67870;DHT22;54673;52.262;6.830;2023-08-06T01:33:50;15.60;95.20
67870;DHT22;54673;52.262;6.830;2023-08-06T01:36:17;15.60;95.40
67870;DHT22;54673;52.262;6.830;2023-08-06T01:38:44;15.60;95.50
67870;DHT22;54673;52.262;6.830;2023-08-06T01:41:09;15.60;95.50
67870;DHT22;54673;52.262;6.830;2023-08-06T01:43:35;16.10;95.40
67870;DHT22;54673;52.262;6.830;2023-08-06T01:46:00;15.50;95.20
67870;DHT22;54673;52.262;6.830;2023-08-06T01:48:26;15.70;95.30
67870;DHT22;54673;52.262;6.830;2023-08-06T01:50:51;16.10;95.60
67870;DHT22;54673;52.262;6.830;2023-08-06T01:53:17;15.50;95.10
67870;DHT22;54673;52.262;6.830;2023-08-06T01:55:48;15.50;95.30
67870;DHT22;54673;52.262;6.830;2023-08-06T01:58:13;15.50;95.20
67870;DHT22;54673;52.262;6.830;2023-08-06T02:00:40;15.50;95.70
67870;DHT22;54673;52.262;6.830;2023-08-06T02:03:05;15.50;95.60
67870;DHT22;54673;52.262;6.830;2023-08-06T02:05:31;15.50;95.70
67870;DHT22;54673;52.262;6.830;2023-08-06T02:07:56;15.40;95.40
67870;DHT22;54673;52.262;6.830;2023-08-06T02:10:22;15.40;95.60
67870;DHT22;54673;52.262;6.830;2023-08-06T02:12:48;15.40;95.60
67870;DHT22;54673;52.262;6.830;2023-08-06T02:15:13;15.40;95.50
67870;DHT22;54673;52.262;6.830;2023-08-06T02:17:39;15.40;95.80
67870;DHT22;54673;52.262;6.830;2023-08-06T02:20:05;15.80;95.40
67870;DHT22;54673;52.262;6.830;2023-08-06T02:22:31;15.40;95.50
67870;DHT22;54673;52.262;6.830;2023-08-06T02:24:56;15.40;95.50
67870;DHT22;54673;52.262;6.830;2023-08-06T02:27:22;15.40;95.60
67870;DHT22;54673;52.262;6.830;2023-08-06T02:29:47;15.90;95.70
67870;DHT22;54673;52.262;6.830;2023-08-06T02:32:13;15.40;95.70
67870;DHT22;54673;52.262;6.830;2023-08-06T02:34:38;15.40;95.90
67870;DHT22;54673;52.262;6.830;2023-08-06T02:37:04;15.40;95.70
67870;DHT22;54673;52.262;6.830;2023-08-06T02:39:30;15.40;95.60
67870;DHT22;54673;52.262;6.830;2023-08-06T02:41:55;15.40;95.80
67870;DHT22;54673;52.262;6.830;2023-08-06T02:44:21;15.40;95.80
67870;DHT22;54673;52.262;6.830;2023-08-06T02:46:47;15.30;95.80
67870;DHT22;54673;52.262;6.830;2023-08-06T02:49:12;15.40;95.60
67870;DHT22;54673;52.262;6.830;2023-08-06T02:51:38;15.40;95.80
67870;DHT22;54673;52.262;6.830;2023-08-06T02:54:03;16.00;96.10
67870;DHT22;54673;52.262;6.830;2023-08-06T02:56:29;15.30;95.90
67870;DHT22;54673;52.262;6.830;2023-08-06T02:58:55;15.60;96.10
67870;DHT22;54673;52.262;6.830;2023-08-06T03:01:20;15.30;96.00
67870;DHT22;54673;52.262;6.830;2023-08-06T03:03:46;15.30;96.00
67870;DHT22;54673;52.262;6.830;2023-08-06T03:06:11;15.30;95.90
67870;DHT22;54673;52.262;6.830;2023-08-06T03:08:37;15.30;95.80
67870;DHT22;54673;52.262;6.830;2023-08-06T03:11:02;15.30;96.30
67870;DHT22;54673;52.262;6.830;2023-08-06T03:13:28;15.30;95.90
67870;DHT22;54673;52.262;6.830;2023-08-06T03:15:55;15.50;95.80
67870;DHT22;54673;52.262;6.830;2023-08-06T03:18:21;15.30;95.80
67870;DHT22;54673;52.262;6.830;2023-08-06T03:20:47;15.30;95.90
67870;DHT22;54673;52.262;6.830;2023-08-06T03:23:12;15.30;95.80
67870;DHT22;54673;52.262;6.830;2023-08-06T03:25:38;15.30;96.00
67870;DHT22;54673;52.262;6.830;2023-08-06T03:28:03;15.30;96.10
67870;DHT22;54673;52.262;6.830;2023-08-06T03:30:29;15.30;95.90
67870;DHT22;54673;52.262;6.830;2023-08-06T03:32:55;15.30;95.80
67870;DHT22;54673;52.262;6.830;2023-08-06T03:35:20;15.30;96.10
67870;DHT22;54673;52.262;6.830;2023-08-06T03:37:46;15.50;95.90
67870;DHT22;54673;52.262;6.830;2023-08-06T03:40:12;15.50;96.10
67870;DHT22;54673;52.262;6.830;2023-08-06T03:42:37;15.20;96.10
67870;DHT22;54673;52.262;6.830;2023-08-06T03:45:03;15.70;96.10
67870;DHT22;54673;52.262;6.830;2023-08-06T03:47:29;15.20;95.90
67870;DHT22;54673;52.262;6.830;2023-08-06T03:49:54;15.30;95.90
67870;DHT22;54673;52.262;6.830;2023-08-06T03:52:20;15.40;96.00
67870;DHT22;54673;52.262;6.830;2023-08-06T03:54:45;15.20;96.10
67870;DHT22;54673;52.262;6.830;2023-08-06T03:57:11;15.20;96.10
67870;DHT22;54673;52.262;6.830;2023-08-06T03:59:37;15.20;95.90
67870;DHT22;54673;52.262;6.830;2023-08-06T04:02:03;15.20;95.80
67870;DHT22;54673;52.262;6.830;2023-08-06T04:04:28;15.30;96.00
67870;DHT22;54673;52.262;6.830;2023-08-06T04:06:54;15.30;96.10
67870;DHT22;54673;52.262;6.830;2023-08-06T04:09:19;15.30;96.20
67870;DHT22;54673;52.262;6.830;2023-08-06T04:11:45;15.20;96.00
67870;DHT22;54673;52.262;6.830;2023-08-06T04:14:11;15.20;96.10
67870;DHT22;54673;52.262;6.830;2023-08-06T04:16:36;15.20;96.20
67870;DHT22;54673;52.262;6.830;2023-08-06T04:19:02;15.30;96.10
67870;DHT22;54673;52.262;6.830;2023-08-06T04:21:27;15.30;96.10
67870;DHT22;54673;52.262;6.830;2023-08-06T04:23:53;15.20;96.60
67870;DHT22;54673;52.262;6.830;2023-08-06T04:26:18;15.20;96.10
67870;DHT22;54673;52.262;6.830;2023-08-06T04:28:44;15.20;96.30
67870;DHT22;54673;52.262;6.830;2023-08-06T04:31:10;15.50;96.20
67870;DHT22;54673;52.262;6.830;2023-08-06T04:33:35;15.20;96.40
67870;DHT22;54673;52.262;6.830;2023-08-06T04:36:01;15.20;96.20
67870;DHT22;54673;52.262;6.830;2023-08-06T04:38:26;15.50;96.10
67870;DHT22;54673;52.262;6.830;2023-08-06T04:40:53;15.20;96.20
67870;DHT22;54673;52.262;6.830;2023-08-06T04:43:18;15.20;96.10
67870;DHT22;54673;52.262;6.830;2023-08-06T04:45:53;15.20;96.30
67870;DHT22;54673;52.262;6.830;2023-08-06T04:48:19;15.20;96.50
67870;DHT22;54673;52.262;6.830;2023-08-06T04:50:46;15.20;96.40
67870;DHT22;54673;52.262;6.830;2023-08-06T04:53:12;15.20;96.20
67870;DHT22;54673;52.262;6.830;2023-08-06T04:55:38;15.20;96.10
67870;DHT22;54673;52.262;6.830;2023-08-06T04:58:03;15.20;96.30
67870;DHT22;54673;52.262;6.830;2023-08-06T05:00:29;15.20;96.30
67870;DHT22;54673;52.262;6.830;2023-08-06T05:02:55;15.20;96.10
67870;DHT22;54673;52.262;6.830;2023-08-06T05:05:21;15.20;96.40
67870;DHT22;54673;52.262;6.830;2023-08-06T05:07:49;15.20;96.30
67870;DHT22;54673;52.262;6.830;2023-08-06T05:10:16;15.20;96.20
67870;DHT22;54673;52.262;6.830;2023-08-06T05:12:41;15.20;96.20
67870;DHT22;54673;52.262;6.830;2023-08-06T05:15:07;15.20;96.30
67870;DHT22;54673;52.262;6.830;2023-08-06T05:17:33;15.20;96.20
67870;DHT22;54673;52.262;6.830;2023-08-06T05:19:59;15.20;96.50
67870;DHT22;54673;52.262;6.830;2023-08-06T05:22:25;15.30;96.80
67870;DHT22;54673;52.262;6.830;2023-08-06T05:24:51;15.90;96.70
67870;DHT22;54673;52.262;6.830;2023-08-06T05:27:16;15.20;96.30
67870;DHT22;54673;52.262;6.830;2023-08-06T05:29:44;15.20;96.10
67870;DHT22;54673;52.262;6.830;2023-08-06T05:32:10;15.20;96.50
67870;DHT22;54673;52.262;6.830;2023-08-06T05:34:35;15.20;96.40
67870;DHT22;54673;52.262;6.830;2023-08-06T05:37:01;15.20;96.50
67870;DHT22;54673;52.262;6.830;2023-08-06T05:39:27;15.20;96.30
67870;DHT22;54673;52.262;6.830;2023-08-06T05:41:52;15.30;96.50
67870;DHT22;54673;52.262;6.830;2023-08-06T05:44:18;15.90;96.70
67870;DHT22;54673;52.262;6.830;2023-08-06T05:46:44;15.30;96.40
67870;DHT22;54673;52.262;6.830;2023-08-06T05:49:09;15.30;96.50
67870;DHT22;54673;52.262;6.830;2023-08-06T05:51:35;15.30;96.60
67870;DHT22;54673;52.262;6.830;2023-08-06T05:54:00;15.30;96.50
67870;DHT22;54673;52.262;6.830;2023-08-06T05:56:26;15.30;96.50
67870;DHT22;54673;52.262;6.830;2023-08-06T05:58:51;15.30;96.50
67870;DHT22;54673;52.262;6.830;2023-08-06T06:01:18;15.30;96.60
67870;DHT22;54673;52.262;6.830;2023-08-06T06:03:44;15.30;96.80
67870;DHT22;54673;52.262;6.830;2023-08-06T06:06:10;15.30;96.60
67870;DHT22;54673;52.262;6.830;2023-08-06T06:08:35;15.30;96.80
67870;DHT22;54673;52.262;6.830;2023-08-06T06:11:01;16.00;96.70
67870;DHT22;54673;52.262;6.830;2023-08-06T06:13:27;15.30;97.00
67870;DHT22;54673;52.262;6.830;2023-08-06T06:15:55;15.30;97.00
67870;DHT22;54673;52.262;6.830;2023-08-06T06:18:22;15.70;96.70
67870;DHT22;54673;52.262;6.830;2023-08-06T06:20:47;15.40;97.10
67870;DHT22;54673;52.262;6.830;2023-08-06T06:23:13;16.20;97.20
67870;DHT22;54673;52.262;6.830;2023-08-06T06:25:57;15.40;96.80
67870;DHT22;54673;52.262;6.830;2023-08-06T06:28:23;15.40;97.50
67870;DHT22;54673;52.262;6.830;2023-08-06T06:30:49;15.40;97.00
67870;DHT22;54673;52.262;6.830;2023-08-06T06:33:15;15.50;97.40
67870;DHT22;54673;52.262;6.830;2023-08-06T06:35:40;15.50;97.40
67870;DHT22;54673;52.262;6.830;2023-08-06T06:38:06;15.50;97.10
67870;DHT22;54673;52.262;6.830;2023-08-06T06:40:32;15.50;97.10
67870;DHT22;54673;52.262;6.830;2023-08-06T06:42:58;15.50;97.30
67870;DHT22;54673;52.262;6.830;2023-08-06T06:45:24;15.50;97.10
67870;DHT22;54673;52.262;6.830;2023-08-06T06:47:49;15.60;97.70
67870;DHT22;54673;52.262;6.830;2023-08-06T06:50:15;15.60;97.10
67870;DHT22;54673;52.262;6.830;2023-08-06T06:52:41;15.60;96.80
67870;DHT22;54673;52.262;6.830;2023-08-06T06:55:07;15.60;96.80
67870;DHT22;54673;52.262;6.830;2023-08-06T06:57:32;15.60;97.20
67870;DHT22;54673;52.262;6.830;2023-08-06T06:59:58;15.60;96.70
67870;DHT22;54673;52.262;6.830;2023-08-06T07:02:24;15.70;96.80
67870;DHT22;54673;52.262;6.830;2023-08-06T07:04:50;15.70;96.80
67870;DHT22;54673;52.262;6.830;2023-08-06T07:07:15;16.10;96.70
67870;DHT22;54673;52.262;6.830;2023-08-06T07:09:41;15.70;97.50
67870;DHT22;54673;52.262;6.830;2023-08-06T07:12:07;15.80;96.60
67870;DHT22;54673;52.262;6.830;2023-08-06T07:14:32;15.80;96.40
67870;DHT22;54673;52.262;6.830;2023-08-06T07:16:58;15.80;96.80
67870;DHT22;54673;52.262;6.830;2023-08-06T07:19:24;15.90;96.80
67870;DHT22;54673;52.262;6.830;2023-08-06T07:21:49;15.90;96.60
67870;DHT22;54673;52.262;6.830;2023-08-06T07:24:15;16.00;96.80
67870;DHT22;54673;52.262;6.830;2023-08-06T07:26:40;15.90;97.00
67870;DHT22;54673;52.262;6.830;2023-08-06T07:29:06;15.90;97.00
67870;DHT22;54673;52.262;6.830;2023-08-06T07:31:31;15.90;97.20
67870;DHT22;54673;52.262;6.830;2023-08-06T07:33:57;16.00;98.50
67870;DHT22;54673;52.262;6.830;2023-08-06T07:36:23;16.10;97.20
67870;DHT22;54673;52.262;6.830;2023-08-06T07:38:48;16.00;96.90
67870;DHT22;54673;52.262;6.830;2023-08-06T07:41:17;16.40;97.70
67870;DHT22;54673;52.262;6.830;2023-08-06T07:43:42;16.10;97.90
67870;DHT22;54673;52.262;6.830;2023-08-06T07:46:08;17.20;97.50
67870;DHT22;54673;52.262;6.830;2023-08-06T07:48:34;16.10;96.70
67870;DHT22;54673;52.262;6.830;2023-08-06T07:50:59;16.20;96.70
67870;DHT22;54673;52.262;6.830;2023-08-06T07:53:25;16.20;97.00
67870;DHT22;54673;52.262;6.830;2023-08-06T07:55:57;16.20;98.00
67870;DHT22;54673;52.262;6.830;2023-08-06T07:58:24;16.20;97.00
67870;DHT22;54673;52.262;6.830;2023-08-06T08:00:51;16.30;98.70
67870;DHT22;54673;52.262;6.830;2023-08-06T08:03:17;16.30;97.70
67870;DHT22;54673;52.262;6.830;2023-08-06T08:05:43;16.30;97.60
67870;DHT22;54673;52.262;6.830;2023-08-06T08:08:09;16.30;97.70
67870;DHT22;54673;52.262;6.830;2023-08-06T08:10:35;16.40;97.10
67870;DHT22;54673;52.262;6.830;2023-08-06T08:13:04;16.40;97.60
67870;DHT22;54673;52.262;6.830;2023-08-06T08:15:31;16.40;97.20
67870;DHT22;54673;52.262;6.830;2023-08-06T08:17:58;16.40;97.20
67870;DHT22;54673;52.262;6.830;2023-08-06T08:20:26;16.40;97.80
67870;DHT22;54673;52.262;6.830;2023-08-06T08:22:58;16.40;97.70
67870;DHT22;54673;52.262;6.830;2023-08-06T08:25:24;16.50;97.70
67870;DHT22;54673;52.262;6.830;2023-08-06T08:27:50;16.50;97.50
67870;DHT22;54673;52.262;6.830;2023-08-06T08:30:16;16.50;97.70
67870;DHT22;54673;52.262;6.830;2023-08-06T08:32:42;16.60;98.30
67870;DHT22;54673;52.262;6.830;2023-08-06T08:35:08;16.60;98.70
67870;DHT22;54673;52.262;6.830;2023-08-06T08:37:34;16.70;97.50
67870;DHT22;54673;52.262;6.830;2023-08-06T08:39:59;16.50;98.00
67870;DHT22;54673;52.262;6.830;2023-08-06T08:42:26;17.40;98.40
67870;DHT22;54673;52.262;6.830;2023-08-06T08:44:52;16.80;97.40
67870;DHT22;54673;52.262;6.830;2023-08-06T08:47:19;16.90;97.90
67870;DHT22;54673;52.262;6.830;2023-08-06T08:49:44;17.20;97.70
67870;DHT22;54673;52.262;6.830;2023-08-06T08:52:12;17.00;99.60
67870;DHT22;54673;52.262;6.830;2023-08-06T08:54:40;17.10;97.80
67870;DHT22;54673;52.262;6.830;2023-08-06T08:57:08;17.20;97.70
67870;DHT22;54673;52.262;6.830;2023-08-06T08:59:34;18.20;99.10
67870;DHT22;54673;52.262;6.830;2023-08-06T09:02:01;17.40;97.40
67870;DHT22;54673;52.262;6.830;2023-08-06T09:04:31;17.50;96.90
67870;DHT22;54673;52.262;6.830;2023-08-06T09:06:58;17.90;96.80
67870;DHT22;54673;52.262;6.830;2023-08-06T09:09:35;17.50;97.10
67870;DHT22;54673;52.262;6.830;2023-08-06T09:12:12;18.50;96.20
67870;DHT22;54673;52.262;6.830;2023-08-06T09:14:39;17.60;95.80
67870;DHT22;54673;52.262;6.830;2023-08-06T09:17:04;17.60;95.60
67870;DHT22;54673;52.262;6.830;2023-08-06T09:19:31;17.80;95.40
67870;DHT22;54673;52.262;6.830;2023-08-06T09:21:58;17.80;95.00
67870;DHT22;54673;52.262;6.830;2023-08-06T09:24:24;17.90;95.60
67870;DHT22;54673;52.262;6.830;2023-08-06T09:26:51;18.00;94.60
67870;DHT22;54673;52.262;6.830;2023-08-06T09:29:17;18.00;94.50
67870;DHT22;54673;52.262;6.830;2023-08-06T09:31:44;19.30;95.10
67870;DHT22;54673;52.262;6.830;2023-08-06T09:34:23;18.10;94.50
67870;DHT22;54673;52.262;6.830;2023-08-06T09:36:50;18.20;94.10
67870;DHT22;54673;52.262;6.830;2023-08-06T09:39:20;18.30;93.90
67870;DHT22;54673;52.262;6.830;2023-08-06T09:41:47;18.30;93.60
67870;DHT22;54673;52.262;6.830;2023-08-06T09:44:16;18.50;94.30
67870;DHT22;54673;52.262;6.830;2023-08-06T09:46:55;18.60;94.50
67870;DHT22;54673;52.262;6.830;2023-08-06T09:51:59;18.60;93.50
67870;DHT22;54673;52.262;6.830;2023-08-06T09:54:26;18.70;94.40
67870;DHT22;54673;52.262;6.830;2023-08-06T09:56:53;18.70;92.90
67870;DHT22;54673;52.262;6.830;2023-08-06T09:59:19;18.80;92.10
67870;DHT22;54673;52.262;6.830;2023-08-06T10:01:46;19.10;92.50
67870;DHT22;54673;52.262;6.830;2023-08-06T10:04:13;19.70;92.80
67870;DHT22;54673;52.262;6.830;2023-08-06T10:06:42;19.00;92.40
67870;DHT22;54673;52.262;6.830;2023-08-06T10:09:08;19.10;91.40
67870;DHT22;54673;52.262;6.830;2023-08-06T10:11:36;19.20;90.60
67870;DHT22;54673;52.262;6.830;2023-08-06T10:14:18;19.30;91.00
67870;DHT22;54673;52.262;6.830;2023-08-06T10:16:45;19.30;91.10
67870;DHT22;54673;52.262;6.830;2023-08-06T10:19:12;19.30;90.00
67870;DHT22;54673;52.262;6.830;2023-08-06T10:21:39;19.80;90.60
67870;DHT22;54673;52.262;6.830;2023-08-06T10:24:08;19.60;89.60
67870;DHT22;54673;52.262;6.830;2023-08-06T10:26:37;19.50;88.10
67870;DHT22;54673;52.262;6.830;2023-08-06T10:29:35;19.60;87.90
67870;DHT22;54673;52.262;6.830;2023-08-06T10:32:02;19.70;87.20
67870;DHT22;54673;52.262;6.830;2023-08-06T10:34:54;19.70;88.20
67870;DHT22;54673;52.262;6.830;2023-08-06T10:37:23;19.70;87.90
67870;DHT22;54673;52.262;6.830;2023-08-06T10:39:50;19.80;87.20
67870;DHT22;54673;52.262;6.830;2023-08-06T10:42:27;19.90;87.00
67870;DHT22;54673;52.262;6.830;2023-08-06T10:45:15;20.00;86.40
67870;DHT22;54673;52.262;6.830;2023-08-06T10:47:45;20.10;86.70
67870;DHT22;54673;52.262;6.830;2023-08-06T10:50:16;20.10;86.40
67870;DHT22;54673;52.262;6.830;2023-08-06T10:52:46;20.20;86.30
67870;DHT22;54673;52.262;6.830;2023-08-06T10:55:13;20.30;85.60
67870;DHT22;54673;52.262;6.830;2023-08-06T10:57:38;20.30;86.20
67870;DHT22;54673;52.262;6.830;2023-08-06T11:00:06;20.40;84.90
67870;DHT22;54673;52.262;6.830;2023-08-06T11:02:38;20.50;85.50
67870;DHT22;54673;52.262;6.830;2023-08-06T11:05:10;20.50;84.30
67870;DHT22;54673;52.262;6.830;2023-08-06T11:07:37;20.70;84.40
67870;DHT22;54673;52.262;6.830;2023-08-06T11:10:03;20.70;84.70
67870;DHT22;54673;52.262;6.830;2023-08-06T11:12:30;20.70;84.40
67870;DHT22;54673;52.262;6.830;2023-08-06T11:14:56;20.80;83.30
67870;DHT22;54673;52.262;6.830;2023-08-06T11:17:22;20.90;83.00
67870;DHT22;54673;52.262;6.830;2023-08-06T11:19:47;21.00;82.50
67870;DHT22;54673;52.262;6.830;2023-08-06T11:22:14;21.10;82.30
67870;DHT22;54673;52.262;6.830;2023-08-06T11:24:40;21.20;81.70
67870;DHT22;54673;52.262;6.830;2023-08-06T11:27:16;21.20;80.60
67870;DHT22;54673;52.262;6.830;2023-08-06T11:29:42;21.30;80.50
67870;DHT22;54673;52.262;6.830;2023-08-06T11:32:08;21.40;81.10
67870;DHT22;54673;52.262;6.830;2023-08-06T11:34:35;21.50;80.00
67870;DHT22;54673;52.262;6.830;2023-08-06T11:37:02;21.60;79.40
67870;DHT22;54673;52.262;6.830;2023-08-06T11:39:29;21.60;79.50
67870;DHT22;54673;52.262;6.830;2023-08-06T11:41:55;21.80;79.60
67870;DHT22;54673;52.262;6.830;2023-08-06T11:44:22;21.80;79.00
67870;DHT22;54673;52.262;6.830;2023-08-06T11:49:18;22.00;78.70
67870;DHT22;54673;52.262;6.830;2023-08-06T11:51:49;22.00;78.50
67870;DHT22;54673;52.262;6.830;2023-08-06T11:54:15;22.10;78.20
67870;DHT22;54673;52.262;6.830;2023-08-06T11:56:40;22.10;77.00
67870;DHT22;54673;52.262;6.830;2023-08-06T11:59:06;22.20;77.10
67870;DHT22;54673;52.262;6.830;2023-08-06T12:01:32;22.20;77.60
67870;DHT22;54673;52.262;6.830;2023-08-06T12:04:00;22.20;76.80
67870;DHT22;54673;52.262;6.830;2023-08-06T12:06:29;22.30;77.40
67870;DHT22;54673;52.262;6.830;2023-08-06T12:08:55;22.30;77.50
67870;DHT22;54673;52.262;6.830;2023-08-06T12:11:23;22.30;76.50
67870;DHT22;54673;52.262;6.830;2023-08-06T12:13:52;22.30;76.70
67870;DHT22;54673;52.262;6.830;2023-08-06T12:16:18;22.40;75.40
67870;DHT22;54673;52.262;6.830;2023-08-06T12:18:44;22.40;76.10
67870;DHT22;54673;52.262;6.830;2023-08-06T12:21:10;22.40;76.30
67870;DHT22;54673;52.262;6.830;2023-08-06T12:23:36;22.40;76.30
67870;DHT22;54673;52.262;6.830;2023-08-06T12:26:01;22.40;75.80
67870;DHT22;54673;52.262;6.830;2023-08-06T12:28:27;22.40;75.20
67870;DHT22;54673;52.262;6.830;2023-08-06T12:30:53;22.40;76.20
67870;DHT22;54673;52.262;6.830;2023-08-06T12:33:20;22.50;75.10
67870;DHT22;54673;52.262;6.830;2023-08-06T12:35:46;22.40;74.70
67870;DHT22;54673;52.262;6.830;2023-08-06T12:38:11;22.50;75.10
67870;DHT22;54673;52.262;6.830;2023-08-06T12:40:38;22.40;75.70
67870;DHT22;54673;52.262;6.830;2023-08-06T12:43:04;22.40;76.10
67870;DHT22;54673;52.262;6.830;2023-08-06T12:45:30;22.40;76.70
67870;DHT22;54673;52.262;6.830;2023-08-06T12:47:55;22.40;76.50
67870;DHT22;54673;52.262;6.830;2023-08-06T12:50:21;22.40;76.90
67870;DHT22;54673;52.262;6.830;2023-08-06T12:52:46;22.40;76.70
67870;DHT22;54673;52.262;6.830;2023-08-06T12:55:12;22.40;77.10
67870;DHT22;54673;52.262;6.830;2023-08-06T12:57:38;22.40;77.40
67870;DHT22;54673;52.262;6.830;2023-08-06T13:00:04;22.50;77.70
67870;DHT22;54673;52.262;6.830;2023-08-06T13:02:30;22.40;77.60
67870;DHT22;54673;52.262;6.830;2023-08-06T13:04:56;22.40;77.60
67870;DHT22;54673;52.262;6.830;2023-08-06T13:07:21;22.40;77.80
67870;DHT22;54673;52.262;6.830;2023-08-06T13:09:47;22.40;77.70
67870;DHT22;54673;52.262;6.830;2023-08-06T13:12:12;22.40;77.30
67870;DHT22;54673;52.262;6.830;2023-08-06T13:14:38;22.40;77.50
67870;DHT22;54673;52.262;6.830;2023-08-06T13:17:03;22.40;77.60
67870;DHT22;54673;52.262;6.830;2023-08-06T13:19:32;22.40;77.60
67870;DHT22;54673;52.262;6.830;2023-08-06T13:22:02;22.50;77.30
67870;DHT22;54673;52.262;6.830;2023-08-06T13:24:29;22.40;76.90
67870;DHT22;54673;52.262;6.830;2023-08-06T13:26:55;22.40;76.60
67870;DHT22;54673;52.262;6.830;2023-08-06T13:29:21;22.40;75.90
67870;DHT22;54673;52.262;6.830;2023-08-06T13:31:46;22.50;75.70
67870;DHT22;54673;52.262;6.830;2023-08-06T13:34:12;22.50;76.80
67870;DHT22;54673;52.262;6.830;2023-08-06T13:36:38;22.50;76.00
67870;DHT22;54673;52.262;6.830;2023-08-06T13:39:04;22.50;75.70
67870;DHT22;54673;52.262;6.830;2023-08-06T13:41:30;22.50;76.10
67870;DHT22;54673;52.262;6.830;2023-08-06T13:43:56;22.60;76.10
67870;DHT22;54673;52.262;6.830;2023-08-06T13:46:21;22.90;75.80
67870;DHT22;54673;52.262;6.830;2023-08-06T13:48:48;22.40;76.30
67870;DHT22;54673;52.262;6.830;2023-08-06T13:51:16;22.40;77.00
67870;DHT22;54673;52.262;6.830;2023-08-06T13:53:42;22.50;76.60
67870;DHT22;54673;52.262;6.830;2023-08-06T13:56:11;22.40;74.70
67870;DHT22;54673;52.262;6.830;2023-08-06T13:58:40;22.50;75.40
67870;DHT22;54673;52.262;6.830;2023-08-06T14:01:06;22.50;75.50
67870;DHT22;54673;52.262;6.830;2023-08-06T14:03:32;22.50;77.20
67870;DHT22;54673;52.262;6.830;2023-08-06T14:05:57;22.50;78.80
67870;DHT22;54673;52.262;6.830;2023-08-06T14:08:24;22.40;78.80
67870;DHT22;54673;52.262;6.830;2023-08-06T14:10:51;22.40;79.10
67870;DHT22;54673;52.262;6.830;2023-08-06T14:13:16;22.40;79.00
67870;DHT22;54673;52.262;6.830;2023-08-06T14:15:43;22.40;79.00
67870;DHT22;54673;52.262;6.830;2023-08-06T14:18:15;22.40;79.00
67870;DHT22;54673;52.262;6.830;2023-08-06T14:20:41;22.40;79.00
67870;DHT22;54673;52.262;6.830;2023-08-06T14:23:07;22.40;78.90
67870;DHT22;54673;52.262;6.830;2023-08-06T14:25:32;22.30;79.10
67870;DHT22;54673;52.262;6.830;2023-08-06T14:27:58;22.30;79.40
67870;DHT22;54673;52.262;6.830;2023-08-06T14:30:24;22.30;79.10
67870;DHT22;54673;52.262;6.830;2023-08-06T14:32:49;22.20;79.30
67870;DHT22;54673;52.262;6.830;2023-08-06T14:35:15;22.20;79.60
67870;DHT22;54673;52.262;6.830;2023-08-06T14:37:41;22.20;80.10
67870;DHT22;54673;52.262;6.830;2023-08-06T14:40:07;22.10;80.30
67870;DHT22;54673;52.262;6.830;2023-08-06T14:42:33;22.10;80.70
67870;DHT22;54673;52.262;6.830;2023-08-06T14:44:58;22.00;81.00
67870;DHT22;54673;52.262;6.830;2023-08-06T14:47:24;22.00;81.10
67870;DHT22;54673;52.262;6.830;2023-08-06T14:49:50;21.90;81.00
67870;DHT22;54673;52.262;6.830;2023-08-06T14:52:16;21.80;81.70
67870;DHT22;54673;52.262;6.830;2023-08-06T14:54:42;21.80;82.10
67870;DHT22;54673;52.262;6.830;2023-08-06T14:57:08;21.70;81.70
67870;DHT22;54673;52.262;6.830;2023-08-06T14:59:35;21.70;82.00
67870;DHT22;54673;52.262;6.830;2023-08-06T15:02:00;21.60;82.30
67870;DHT22;54673;52.262;6.830;2023-08-06T15:04:26;21.60;82.00
67870;DHT22;54673;52.262;6.830;2023-08-06T15:06:52;21.50;81.90
67870;DHT22;54673;52.262;6.830;2023-08-06T15:09:17;21.40;82.00
67870;DHT22;54673;52.262;6.830;2023-08-06T15:11:43;21.30;82.10
67870;DHT22;54673;52.262;6.830;2023-08-06T15:14:09;21.30;82.50
67870;DHT22;54673;52.262;6.830;2023-08-06T15:16:34;21.20;82.50
67870;DHT22;54673;52.262;6.830;2023-08-06T15:19:00;21.10;82.40
67870;DHT22;54673;52.262;6.830;2023-08-06T15:21:27;21.10;82.90
67870;DHT22;54673;52.262;6.830;2023-08-06T15:23:53;21.00;82.80
67870;DHT22;54673;52.262;6.830;2023-08-06T15:26:19;20.90;83.10
67870;DHT22;54673;52.262;6.830;2023-08-06T15:28:45;20.90;83.20
67870;DHT22;54673;52.262;6.830;2023-08-06T15:31:11;20.80;84.30
67870;DHT22;54673;52.262;6.830;2023-08-06T15:33:36;20.80;83.70
67870;DHT22;54673;52.262;6.830;2023-08-06T15:36:02;20.70;83.70
67870;DHT22;54673;52.262;6.830;2023-08-06T15:38:28;20.70;83.90
67870;DHT22;54673;52.262;6.830;2023-08-06T15:40:53;20.60;83.90
67870;DHT22;54673;52.262;6.830;2023-08-06T15:43:19;20.60;83.90